Oscoda, Michigan
Current Conditions -  °F | °C
As of 12:54 AM on Friday 31 Oct 2014 (Local Time) from KOSC Reporting Station
Light Rain Light Rain  
Wind Chill: 42°   Ceiling: 2900
Heat Index: 42°   Visibility: 7mi
Dew Point: 41°   Wind: 3mph
Humidity: 99%   Direction: 240°WSW
Pressure: 29.93"   Gusts: NA
Location:  44.42°N, 83.33°W
Report Text: KOSC 310454Z AUTO 24003KT 7SM -RA BKN029 BKN038 OVC065 05/05 A2993 RMK AO2 T00530051
Loading
Personal Weather Stations






























Interactive Weather Map New forecast layout! Learn more

10-Day Weather Forecast

Advertisements
Track Severe Weather on mobile